Time;durP1;ratioP1;P1;durP2;ratioP2;P2;SDS_P1;SDS_P2;PMS_P1;PMS_P2;Temp;Humidity;BMP_temperature;BMP_pressure;BME280_temperature;BME280_humidity;BME280_pressure;Samples;Min_cycle;Max_cycle;Signal;HPM_P1;HPM_P2
2023/04/27 00:00:13;;;;;;;0.20;0.20;;;4.10;99.90;;;;;;6243297;23;20020;-84
2023/04/27 00:02:39;;;;;;;0.20;0.20;;;4.10;99.90;;;;;;6217145;23;20030;-84
2023/04/27 00:05:10;;;;;;;0.20;0.20;;;4.20;99.90;;;;;;6215601;23;20437;-84
2023/04/27 00:07:36;;;;;;;0.20;0.20;;;5.00;99.90;;;;;;6216191;23;20016;-85
2023/04/27 00:10:23;;;;;;;0.15;0.15;;;4.30;99.90;;;;;;6197726;23;20030;-85
2023/04/27 00:13:06;;;;;;;0.20;0.20;;;4.20;99.90;;;;;;6217822;23;20015;-84
2023/04/27 00:15:32;;;;;;;0.20;0.20;;;4.30;99.90;;;;;;6243625;23;20095;-83
2023/04/27 00:18:06;;;;;;;0.20;0.20;;;4.30;99.90;;;;;;6242797;23;20062;-84
2023/04/27 00:20:32;;;;;;;0.20;0.20;;;4.40;99.90;;;;;;6216736;23;20028;-83
2023/04/27 00:23:13;;;;;;;0.20;0.20;;;5.30;99.90;;;;;;6244267;23;20027;-83
2023/04/27 00:25:45;;;;;;;0.20;0.20;;;4.40;99.90;;;;;;6216799;23;20457;-84
2023/04/27 00:30:55;;;;;;;0.20;0.20;;;4.50;99.90;;;;;;6293425;22;20031;-84
2023/04/27 00:33:27;;;;;;;0.20;0.20;;;4.50;99.90;;;;;;6277807;22;20015;-86
2023/04/27 00:36:36;;;;;;;0.20;0.20;;;4.50;99.90;;;;;;6277940;22;20019;-85
2023/04/27 00:39:05;;;;;;;0.20;0.20;;;3.90;99.90;;;;;;6276949;22;20019;-87
2023/04/27 00:41:52;;;;;;;0.20;0.20;;;4.60;99.90;;;;;;6279299;22;20400;-86
2023/04/27 00:44:57;;;;;;;0.20;0.20;;;5.10;99.90;;;;;;6277399;22;20011;-86
2023/04/27 00:47:28;;;;;;;0.20;0.20;;;4.60;99.90;;;;;;6305887;22;20094;-86
2023/04/27 00:50:07;;;;;;;0.20;0.20;;;4.70;99.90;;;;;;6305577;22;20461;-87
2023/04/27 00:53:00;;;;;;;0.20;0.20;;;4.70;99.90;;;;;;6267265;22;20094;-85
2023/04/27 00:59:00;;;;;;;0.20;0.20;;;4.70;99.90;;;;;;6268664;22;20015;-86
2023/04/27 01:01:48;;;;;;;0.20;0.20;;;5.60;99.90;;;;;;6272195;22;20011;-87
2023/04/27 01:04:17;;;;;;;0.20;0.20;;;4.50;99.90;;;;;;6272828;22;20147;-86
2023/04/27 01:06:59;;;;;;;0.20;0.20;;;5.30;99.90;;;;;;6265826;22;20306;-87
2023/04/27 01:10:14;;;;;;;0.20;0.20;;;4.60;99.90;;;;;;6244922;23;20049;-86
2023/04/27 01:12:40;;;;;;;0.20;0.20;;;4.50;99.90;;;;;;6245966;23;20066;-86
2023/04/27 01:15:09;;;;;;;0.20;0.20;;;4.50;99.90;;;;;;6243547;22;20098;-86
2023/04/27 01:17:45;;;;;;;0.20;0.20;;;4.50;99.90;;;;;;6245666;22;20465;-85
2023/04/27 01:20:29;;;;;;;0.20;0.20;;;4.50;99.90;;;;;;6240606;22;20054;-86
2023/04/27 01:23:33;;;;;;;0.20;0.20;;;4.40;99.90;;;;;;6230705;22;20019;-86
2023/04/27 01:25:58;;;;;;;;;;;5.50;99.90;;;;;;6202847;23;20028;-86
2023/04/27 01:28:27;;;;;;;0.20;0.20;;;5.20;99.90;;;;;;6268046;22;19903;-86
2023/04/27 01:30:52;;;;;;;0.20;0.20;;;4.30;99.90;;;;;;6252729;23;20065;-86
2023/04/27 01:33:18;;;;;;;0.20;0.20;;;4.30;99.90;;;;;;6244185;23;20017;-86
2023/04/27 01:35:44;;;;;;;0.20;0.20;;;4.20;99.90;;;;;;6241548;23;20387;-86
2023/04/27 01:38:09;;;;;;;0.20;0.20;;;4.20;99.90;;;;;;6243543;23;20016;-86
2023/04/27 01:40:39;;;;;;;0.20;0.20;;;4.20;99.90;;;;;;6241691;23;20012;-86
2023/04/27 01:43:05;;;;;;;0.20;0.20;;;4.20;99.90;;;;;;6241181;23;20042;-87
2023/04/27 01:45:31;;;;;;;0.20;0.20;;;4.10;99.90;;;;;;6239638;23;20452;-86
2023/04/27 01:48:00;;;;;;;0.20;0.20;;;4.10;99.90;;;;;;6243932;23;20016;-87
2023/04/27 01:50:26;;;;;;;0.20;0.20;;;4.10;99.90;;;;;;6242563;23;20023;-86
2023/04/27 01:52:54;;;;;;;0.20;0.20;;;4.00;99.90;;;;;;6241511;23;20020;-86
2023/04/27 01:55:20;;;;;;;0.20;0.20;;;4.00;99.90;;;;;;6242856;23;20114;-86
2023/04/27 01:57:45;;;;;;;0.22;0.22;;;4.00;99.90;;;;;;6240607;23;20428;-87
2023/04/27 02:00:12;;;;;;;0.20;0.20;;;4.00;99.90;;;;;;6238950;23;20050;-86
2023/04/27 02:02:37;;;;;;;0.20;0.20;;;3.90;99.90;;;;;;6240939;23;20022;-86
2023/04/27 02:05:03;;;;;;;0.20;0.20;;;3.90;99.90;;;;;;6242544;23;20441;-86
2023/04/27 02:07:35;;;;;;;0.20;0.20;;;3.90;99.90;;;;;;6241236;23;20027;-86
2023/04/27 02:10:03;;;;;;;0.10;0.10;;;3.90;99.90;;;;;;6242079;23;20044;-86
2023/04/27 02:12:29;;;;;;;0.20;0.20;;;3.90;99.90;;;;;;6243749;23;20070;-85
2023/04/27 02:14:55;;;;;;;0.20;0.20;;;3.80;99.90;;;;;;6241929;22;20087;-86
2023/04/27 02:17:20;;;;;;;0.20;0.20;;;3.80;99.90;;;;;;6241997;22;20074;-86
2023/04/27 02:19:49;;;;;;;0.17;0.17;;;3.80;99.90;;;;;;6240423;23;20051;-86
2023/04/27 02:22:15;;;;;;;0.20;0.20;;;3.80;99.90;;;;;;6240294;23;20057;-86
2023/04/27 02:24:40;;;;;;;0.20;0.20;;;3.70;99.90;;;;;;6240949;23;20023;-87
2023/04/27 02:27:06;;;;;;;0.20;0.20;;;3.80;99.90;;;;;;6242485;23;20024;-87
2023/04/27 02:29:32;;;;;;;0.20;0.20;;;3.70;99.90;;;;;;6239706;23;20026;-86
2023/04/27 02:32:09;;;;;;;0.20;0.20;;;4.90;99.90;;;;;;6241724;22;20465;-85
2023/04/27 02:35:00;;;;;;;0.20;0.20;;;3.70;99.90;;;;;;6229017;22;20031;-86
2023/04/27 02:42:38;;;;;;;0.20;0.20;;;2.60;99.90;;;;;;6212824;23;20168;-84
2023/04/27 02:45:07;;;;;;;0.20;0.20;;;3.60;99.90;;;;;;6181082;23;20021;-86
2023/04/27 02:47:33;;;;;;;0.20;0.20;;;3.60;99.90;;;;;;6157526;23;20024;-85
2023/04/27 02:49:59;;;;;;;0.20;0.20;;;3.50;99.90;;;;;;6183143;23;20076;-86
2023/04/27 02:53:09;;;;;;;0.20;0.20;;;4.30;99.90;;;;;;6155212;23;20407;-86
2023/04/27 03:02:32;;;;;;;0.15;0.15;;;2.60;99.90;;;;;;6158531;23;20044;-86
2023/04/27 03:05:07;;;;;;;0.20;0.20;;;4.00;99.90;;;;;;6160088;23;20433;-86
2023/04/27 03:10:08;;;;;;;0.20;0.20;;;3.40;99.90;;;;;;6326330;22;20031;-87
2023/04/27 03:12:43;;;;;;;0.20;0.20;;;3.30;99.90;;;;;;6324052;22;20342;-86
2023/04/27 03:16:06;;;;;;;0.20;0.20;;;3.40;99.90;;;;;;6267049;22;20011;-86
2023/04/27 03:19:25;;;;;;;0.20;0.20;;;4.10;99.90;;;;;;6253974;22;20368;-86
2023/04/27 03:21:51;;;;;;;0.20;0.20;;;3.70;99.90;;;;;;6243844;23;20018;-86
2023/04/27 03:24:16;;;;;;;0.20;0.20;;;3.20;99.90;;;;;;6217721;23;20016;-87
2023/04/27 03:27:03;;;;;;;0.20;0.20;;;3.20;99.90;;;;;;6217615;23;20087;-87
2023/04/27 03:31:57;;;;;;;0.20;0.20;;;3.20;99.90;;;;;;6305295;22;20019;-87
2023/04/27 03:34:30;;;;;;;0.20;0.20;;;2.40;99.90;;;;;;6305311;22;20523;-87
2023/04/27 03:37:14;;;;;;;0.20;0.20;;;3.10;99.90;;;;;;6237311;22;20010;-87
2023/04/27 03:42:11;;;;;;;0.20;0.20;;;3.10;99.90;;;;;;6271964;22;20019;-87
2023/04/27 03:44:46;;;;;;;0.20;0.20;;;3.00;99.90;;;;;;6247358;22;20022;-86
2023/04/27 03:47:43;;;;;;;0.10;0.10;;;2.90;99.90;;;;;;6247626;22;20270;-87
2023/04/27 03:51:05;;;;;;;0.20;0.20;;;2.10;99.90;;;;;;6236125;22;20039;-87
2023/04/27 03:53:43;;;;;;;0.20;0.20;;;1.80;99.90;;;;;;6248746;22;20027;-86
2023/04/27 03:56:09;;;;;;;0.20;0.20;;;2.90;99.90;;;;;;6246978;22;20018;-87
2023/04/27 03:58:35;;;;;;;0.20;0.20;;;2.90;99.90;;;;;;6247799;22;20094;-87
2023/04/27 04:01:04;;;;;;;0.20;0.20;;;2.90;99.90;;;;;;6273215;22;20054;-87
2023/04/27 04:03:30;;;;;;;0.20;0.20;;;2.90;99.90;;;;;;6274720;22;20024;-87
2023/04/27 04:06:27;;;;;;;0.20;0.20;;;2.80;99.90;;;;;;6275267;22;20339;-87
2023/04/27 04:09:08;;;;;;;0.20;0.20;;;2.80;99.90;;;;;;6248246;22;20118;-87
2023/04/27 04:15:15;;;;;;;0.20;0.20;;;2.90;99.90;;;;;;6273809;22;20084;-87
2023/04/27 04:20:43;;;;;;;0.20;0.20;;;2.90;99.90;;;;;;6268379;22;20028;-86
2023/04/27 04:23:08;;;;;;;0.20;0.20;;;1.50;99.90;;;;;;6272872;22;20031;-86
2023/04/27 04:25:56;;;;;;;0.20;0.20;;;2.90;99.90;;;;;;6273418;22;20020;-86
2023/04/27 04:28:23;;;;;;;0.20;0.20;;;2.90;99.90;;;;;;6274313;22;20058;-87
2023/04/27 04:31:01;;;;;;;0.20;0.20;;;2.90;99.90;;;;;;6273048;22;20118;-87
2023/04/27 04:33:33;;;;;;;0.22;0.22;;;3.60;99.90;;;;;;6274323;22;20098;-87
2023/04/27 04:36:01;;;;;;;0.20;0.20;;;2.90;99.90;;;;;;6272050;22;20023;-87
2023/04/27 04:42:44;;;;;;;0.20;0.20;;;1.90;99.90;;;;;;6181882;23;20076;-88
2023/04/27 04:45:10;;;;;;;0.20;0.20;;;3.00;99.90;;;;;;6180100;23;20020;-88
2023/04/27 04:47:36;;;;;;;0.20;0.20;;;3.10;99.90;;;;;;6276886;22;20472;-87
2023/04/27 04:50:02;;;;;;;0.20;0.20;;;5.10;99.90;;;;;;6279943;22;20024;-87
2023/04/27 04:52:28;;;;;;;0.20;0.20;;;3.10;99.90;;;;;;6300426;22;20024;-87
2023/04/27 04:54:54;;;;;;;0.20;0.20;;;3.10;99.90;;;;;;6299447;22;20022;-86
2023/04/27 04:57:42;;;;;;;0.20;0.20;;;3.00;99.90;;;;;;6277222;22;20050;-85
2023/04/27 05:00:33;;;;;;;0.25;0.25;;;3.10;99.90;;;;;;6274144;22;20035;-88
2023/04/27 05:02:59;;;;;;;0.20;0.20;;;3.10;99.90;;;;;;6275334;22;20020;-87
2023/04/27 05:05:43;;;;;;;0.20;0.20;;;3.20;99.90;;;;;;6274207;22;20023;-87
2023/04/27 05:08:16;;;;;;;0.20;0.20;;;3.20;99.90;;;;;;6272856;22;20027;-87
2023/04/27 05:14:28;;;;;;;0.20;0.20;;;3.80;99.90;;;;;;6267397;22;20058;-86
2023/04/27 05:16:57;;;;;;;0.20;0.20;;;1.90;99.90;;;;;;6273320;22;20012;-86
2023/04/27 05:19:30;;;;;;;0.20;0.20;;;3.40;99.90;;;;;;6272814;22;20022;-87
2023/04/27 05:22:07;;;;;;;0.20;0.20;;;4.20;99.90;;;;;;6220355;22;20011;-86
2023/04/27 05:24:42;;;;;;;0.20;0.20;;;3.40;99.90;;;;;;6274070;22;20022;-87
2023/04/27 05:27:29;;;;;;;0.15;0.15;;;6.30;99.90;;;;;;6272143;22;20094;-87
2023/04/27 05:29:55;;;;;;;0.20;0.20;;;2.20;99.90;;;;;;6272936;22;20100;-86
2023/04/27 05:34:52;;;;;;;0.20;0.20;;;3.70;99.90;;;;;;6303757;22;20011;-87
2023/04/27 05:37:18;;;;;;;;;;;3.50;99.90;;;;;;6306117;22;20087;-88
2023/04/27 05:39:44;;;;;;;0.20;0.20;;;3.10;99.90;;;;;;6305963;22;19993;-88
2023/04/27 05:44:45;;;;;;;0.20;0.20;;;4.10;99.90;;;;;;6276625;22;20057;-88
2023/04/27 05:47:26;;;;;;;0.20;0.20;;;4.30;99.90;;;;;;6304006;22;20027;-89
2023/04/27 05:49:52;;;;;;;0.20;0.20;;;4.20;99.90;;;;;;6277919;22;20047;-89
2023/04/27 05:55:42;;;;;;;0.20;0.20;;;4.30;99.90;;;;;;6305192;22;20019;-90
2023/04/27 06:02:09;;;;;;;0.30;0.30;;;3.10;99.90;;;;;;6305675;22;20231;-87
2023/04/27 06:04:35;;;;;;;0.20;0.20;;;4.60;99.90;;;;;;6280089;22;20019;-87
2023/04/27 06:10:47;;;;;;;0.20;0.20;;;4.60;99.90;;;;;;6307121;22;20014;-88
2023/04/27 06:13:22;;;;;;;0.10;0.10;;;4.20;99.90;;;;;;6280411;22;20023;-89
2023/04/27 06:15:48;;;;;;;0.20;0.20;;;5.00;99.90;;;;;;6305483;22;20068;-88
2023/04/27 06:18:30;;;;;;;0.20;0.20;;;4.90;99.90;;;;;;6280354;22;20019;-88
2023/04/27 06:21:02;;;;;;;0.20;0.20;;;5.00;99.90;;;;;;6298894;22;20023;-89
2023/04/27 06:30:12;;;;;;;0.20;0.20;;;5.10;99.90;;;;;;6305903;22;20022;-89
2023/04/27 06:32:37;;;;;;;0.20;0.20;;;5.20;99.90;;;;;;6282704;22;20100;-88
2023/04/27 06:35:03;;;;;;;0.20;0.20;;;5.20;99.90;;;;;;6302154;22;20015;-90
2023/04/27 06:37:47;;;;;;;0.10;0.10;;;5.30;99.90;;;;;;6306767;22;19995;-90
2023/04/27 06:40:39;;;;;;;0.20;0.20;;;5.30;99.90;;;;;;6278657;22;20048;-89
2023/04/27 06:43:05;;;;;;;0.20;0.20;;;6.60;99.90;;;;;;6306496;22;20019;-90
2023/04/27 06:45:35;;;;;;;0.20;0.20;;;5.60;99.90;;;;;;6305054;22;20022;-89
2023/04/27 06:49:01;;;;;;;0.28;0.28;;;5.80;99.90;;;;;;6272215;22;20097;-87
2023/04/27 06:51:30;;;;;;;0.20;0.20;;;5.00;99.90;;;;;;6274769;22;20027;-87
2023/04/27 06:57:31;;;;;;;0.20;0.20;;;5.40;99.90;;;;;;6271799;22;20016;-86
2023/04/27 07:00:18;;;;;;;0.20;0.20;;;6.20;99.90;;;;;;6269772;22;20020;-84
2023/04/27 07:02:44;;;;;;;0.20;0.20;;;7.00;99.90;;;;;;6271299;22;20047;-84
2023/04/27 07:05:10;;;;;;;0.22;0.22;;;6.50;99.90;;;;;;6271300;22;20452;-85
2023/04/27 07:07:38;;;;;;;0.20;0.20;;;6.40;99.90;;;;;;6270828;22;20023;-85
2023/04/27 07:10:10;;;;;;;0.20;0.20;;;6.50;99.90;;;;;;6273039;22;20018;-84
2023/04/27 07:12:51;;;;;;;0.20;0.20;;;7.10;99.90;;;;;;6273031;22;20081;-83
2023/04/27 07:15:20;;;;;;;0.20;0.20;;;6.60;99.90;;;;;;6271016;22;20027;-82
2023/04/27 07:18:05;;;;;;;0.20;0.20;;;6.70;99.90;;;;;;6274525;22;20505;-83
2023/04/27 07:20:30;;;;;;;0.20;0.20;;;6.70;99.90;;;;;;6271439;22;20016;-84
2023/04/27 07:22:59;;;;;;;0.20;0.20;;;6.80;99.90;;;;;;6273365;22;20425;-83
2023/04/27 07:25:40;;;;;;;0.20;0.20;;;7.30;99.90;;;;;;6271138;22;20047;-84
2023/04/27 07:28:12;;;;;;;0.20;0.20;;;7.80;99.90;;;;;;6271318;22;20441;-84
2023/04/27 07:30:38;;;;;;;0.20;0.20;;;7.10;99.90;;;;;;6271201;22;20027;-84
2023/04/27 07:33:07;;;;;;;0.20;0.20;;;7.10;99.90;;;;;;6272091;22;20011;-83
2023/04/27 07:35:36;;;;;;;0.20;0.20;;;7.30;99.90;;;;;;6271743;22;20023;-84
2023/04/27 07:38:02;;;;;;;0.20;0.20;;;7.30;99.90;;;;;;6274983;22;20022;-84
2023/04/27 07:40:29;;;;;;;0.10;0.10;;;7.30;99.90;;;;;;6269977;22;20462;-84
2023/04/27 07:42:58;;;;;;;0.20;0.20;;;7.50;99.90;;;;;;6272815;22;20465;-84
2023/04/27 07:45:40;;;;;;;0.10;0.10;;;7.50;99.90;;;;;;6271490;22;20067;-85
2023/04/27 07:51:46;;;;;;;0.20;0.20;;;8.40;99.90;;;;;;6274967;22;19955;-82
2023/04/27 07:54:12;;;;;;;0.10;0.10;;;7.80;99.90;;;;;;6247077;22;20035;-82
2023/04/27 07:56:57;;;;;;;0.10;0.10;;;7.80;99.90;;;;;;6267379;22;20011;-83
2023/04/27 08:00:24;;;;;;;0.20;0.20;;;7.90;99.90;;;;;;6271475;22;20020;-82
2023/04/27 08:03:14;;;;;;;0.20;0.20;;;7.40;99.90;;;;;;6275625;22;20114;-82
2023/04/27 08:06:06;;;;;;;0.10;0.10;;;7.50;99.90;;;;;;6274473;22;20019;-80
2023/04/27 08:09:11;;;;;;;0.10;0.10;;;6.80;99.90;;;;;;6274938;22;20015;-82
2023/04/27 08:11:39;;;;;;;0.20;0.20;;;9.60;99.90;;;;;;6273255;22;20097;-83
2023/04/27 08:14:17;;;;;;;0.20;0.20;;;8.30;99.90;;;;;;6275199;22;20012;-83
2023/04/27 08:16:50;;;;;;;0.10;0.10;;;8.40;99.90;;;;;;6268721;22;20019;-81
2023/04/27 08:19:17;;;;;;;0.17;0.17;;;8.40;99.90;;;;;;6291419;22;20011;-81
2023/04/27 08:21:52;;;;;;;0.20;0.20;;;8.50;99.90;;;;;;6279172;22;20015;-81
2023/04/27 08:24:36;;;;;;;0.43;0.20;;;8.50;99.50;;;;;;6272032;22;20015;-83
2023/04/27 08:27:02;;;;;;;0.20;0.20;;;8.50;99.10;;;;;;6271984;22;20023;-84
2023/04/27 08:29:54;;;;;;;0.15;0.15;;;8.60;99.10;;;;;;6268530;22;20065;-84
2023/04/27 08:32:20;;;;;;;0.10;0.10;;;8.70;98.60;;;;;;6269091;22;20016;-84
2023/04/27 08:34:55;;;;;;;0.20;0.20;;;8.10;98.30;;;;;;6267980;22;20046;-84
2023/04/27 08:37:30;;;;;;;0.20;0.20;;;9.30;98.80;;;;;;6268666;22;20043;-83
2023/04/27 08:39:55;;;;;;;0.20;0.20;;;8.00;98.20;;;;;;6272975;22;20022;-83
2023/04/27 08:42:21;;;;;;;0.20;0.20;;;9.10;98.00;;;;;;6269140;22;20032;-82
2023/04/27 08:47:21;;;;;;;0.20;0.20;;;9.20;97.50;;;;;;6241763;23;20024;-82
2023/04/27 08:49:59;;;;;;;0.10;0.10;;;9.20;96.90;;;;;;6213298;23;20038;-82
2023/04/27 08:52:58;;;;;;;0.20;0.20;;;9.80;97.20;;;;;;6213197;23;20020;-82
2023/04/27 08:55:44;;;;;;;0.20;0.20;;;9.10;96.50;;;;;;6161545;23;20020;-82
2023/04/27 08:58:10;;;;;;;0.20;0.20;;;9.50;96.70;;;;;;6212623;23;20020;-84
2023/04/27 09:00:41;;;;;;;0.20;0.20;;;9.60;96.00;;;;;;6224120;22;20018;-84
2023/04/27 09:03:28;;;;;;;0.20;0.20;;;9.60;96.30;;;;;;6275348;22;20018;-83
2023/04/27 09:06:07;;;;;;;0.10;0.10;;;9.70;96.20;;;;;;6267167;22;20069;-82
2023/04/27 09:09:08;;;;;;;0.20;0.20;;;9.90;96.00;;;;;;6271207;22;20019;-82
2023/04/27 09:11:56;;;;;;;0.10;0.10;;;9.90;95.90;;;;;;6272212;22;20046;-83
2023/04/27 09:14:36;;;;;;;0.20;0.20;;;10.60;96.00;;;;;;6274061;22;20019;-82
2023/04/27 09:17:05;;;;;;;0.15;0.15;;;10.50;96.00;;;;;;6272547;22;20019;-83
2023/04/27 09:19:36;;;;;;;0.20;0.20;;;10.30;95.90;;;;;;6273999;22;20072;-84
2023/04/27 09:22:25;;;;;;;0.20;0.20;;;10.40;96.00;;;;;;6275255;22;20015;-82
2023/04/27 09:24:53;;;;;;;0.10;0.10;;;10.50;94.40;;;;;;6274369;22;20312;-83
2023/04/27 09:27:41;;;;;;;0.20;0.20;;;11.00;95.50;;;;;;6273473;22;20016;-82
2023/04/27 09:30:13;;;;;;;0.20;0.20;;;10.70;95.50;;;;;;6272381;22;20020;-84
2023/04/27 09:32:53;;;;;;;0.13;0.13;;;10.80;95.30;;;;;;6273855;22;20027;-84
2023/04/27 09:35:32;;;;;;;0.17;0.17;;;10.90;94.90;;;;;;6273543;22;20030;-84
2023/04/27 09:38:01;;;;;;;0.10;0.10;;;10.60;94.40;;;;;;6273747;22;20026;-83
2023/04/27 09:40:29;;;;;;;0.10;0.10;;;11.20;94.60;;;;;;6274097;22;20019;-84
2023/04/27 09:42:57;;;;;;;0.10;0.10;;;11.20;95.20;;;;;;6274292;22;20020;-84
2023/04/27 09:45:32;;;;;;;0.20;0.20;;;11.20;94.50;;;;;;6272060;22;20178;-83
2023/04/27 09:48:04;;;;;;;0.10;0.10;;;11.30;94.20;;;;;;6274147;22;20282;-84
2023/04/27 09:50:51;;;;;;;0.10;0.10;;;11.40;93.90;;;;;;6272579;22;20011;-83
2023/04/27 09:53:21;;;;;;;0.15;0.15;;;11.40;92.70;;;;;;6269860;22;20020;-83
2023/04/27 09:56:15;;;;;;;0.20;0.20;;;11.50;93.50;;;;;;6273518;22;20094;-84
2023/04/27 09:59:32;;;;;;;0.10;0.10;;;11.50;93.80;;;;;;6290226;22;20054;-84
2023/04/27 10:05:20;;;;;;;0.20;0.20;;;11.60;93.10;;;;;;6204085;22;20020;-84
2023/04/27 10:07:52;;;;;;;0.20;0.20;;;11.50;93.00;;;;;;6269679;22;20531;-84
2023/04/27 10:10:20;;;;;;;0.10;0.10;;;11.50;92.30;;;;;;6270684;22;20019;-83
2023/04/27 10:13:02;;;;;;;0.10;0.10;;;11.50;92.70;;;;;;6270960;22;20023;-84
2023/04/27 10:15:31;;;;;;;0.20;0.20;;;12.20;92.90;;;;;;6271547;22;20031;-84
2023/04/27 10:18:05;;;;;;;0.15;0.15;;;11.80;92.90;;;;;;6271516;22;20073;-82
2023/04/27 10:20:34;;;;;;;0.13;0.13;;;11.40;92.80;;;;;;6272300;22;20026;-83
2023/04/27 10:23:00;;;;;;;0.20;0.20;;;12.20;92.40;;;;;;6267657;22;20020;-83
2023/04/27 10:25:45;;;;;;;0.10;0.10;;;11.30;92.20;;;;;;6270600;22;20352;-84
2023/04/27 10:28:17;;;;;;;0.20;0.20;;;12.20;92.60;;;;;;6271773;22;20015;-82
2023/04/27 10:30:50;;;;;;;0.10;0.10;;;11.30;92.70;;;;;;6271342;22;20023;-83
2023/04/27 10:33:32;;;;;;;0.20;0.20;;;11.20;92.70;;;;;;6270083;22;20107;-84
2023/04/27 10:35:57;;;;;;;;;;;11.20;92.90;;;;;;6273008;22;20483;-85
2023/04/27 10:38:39;;;;;;;0.20;0.20;;;11.20;93.00;;;;;;6273415;22;19912;-84
2023/04/27 10:41:22;;;;;;;0.15;0.15;;;11.20;93.20;;;;;;6270884;22;20012;-84
2023/04/27 10:44:13;;;;;;;0.20;0.20;;;11.60;93.20;;;;;;6273384;22;20022;-84
2023/04/27 10:47:07;;;;;;;0.10;0.10;;;11.40;92.80;;;;;;6270990;22;20023;-85
2023/04/27 10:49:39;;;;;;;0.10;0.10;;;11.40;92.80;;;;;;6272093;22;20012;-82
2023/04/27 10:52:05;;;;;;;0.17;0.17;;;11.50;93.00;;;;;;6269832;22;20344;-82
2023/04/27 10:54:32;;;;;;;0.10;0.10;;;11.50;93.20;;;;;;6269315;22;20020;-83
2023/04/27 11:00:09;;;;;;;0.10;0.10;;;11.70;92.60;;;;;;6270925;22;20023;-83
2023/04/27 11:02:43;;;;;;;0.20;0.20;;;11.90;93.10;;;;;;6270739;22;20020;-84
2023/04/27 11:05:31;;;;;;;0.20;0.20;;;12.00;92.50;;;;;;6271053;22;20011;-83
2023/04/27 11:08:05;;;;;;;0.13;0.13;;;12.10;92.90;;;;;;6268703;22;20018;-84
2023/04/27 11:10:32;;;;;;;0.10;0.10;;;12.20;93.10;;;;;;6267548;22;20340;-85
2023/04/27 11:13:05;;;;;;;0.10;0.10;;;12.40;92.40;;;;;;6269985;22;20070;-82
2023/04/27 11:15:40;;;;;;;0.20;0.20;;;12.40;91.50;;;;;;6271383;22;20046;-82
2023/04/27 11:18:06;;;;;;;0.10;0.10;;;12.40;91.80;;;;;;6273896;22;20007;-83
2023/04/27 11:20:31;;;;;;;0.20;0.20;;;12.40;91.80;;;;;;6273201;22;20095;-85
2023/04/27 11:23:00;;;;;;;0.20;0.20;;;12.40;91.20;;;;;;6271788;22;20016;-80
2023/04/27 11:25:29;;;;;;;0.10;0.10;;;12.40;91.60;;;;;;6275782;22;20016;-84
2023/04/27 11:27:54;;;;;;;0.20;0.20;;;12.40;91.60;;;;;;6275605;22;20018;-86
2023/04/27 11:30:22;;;;;;;0.10;0.10;;;12.30;91.50;;;;;;6273510;22;20376;-85
2023/04/27 11:32:48;;;;;;;0.10;0.10;;;12.30;91.50;;;;;;6273241;22;20399;-86
2023/04/27 11:35:14;;;;;;;0.20;0.20;;;12.30;91.80;;;;;;6273055;22;20090;-85
2023/04/27 11:37:41;;;;;;;0.10;0.10;;;12.30;91.90;;;;;;6277968;22;20023;-86
2023/04/27 11:40:13;;;;;;;0.10;0.10;;;12.20;91.70;;;;;;6284985;22;20051;-83
2023/04/27 11:42:42;;;;;;;0.20;0.20;;;12.20;91.70;;;;;;6302604;22;20030;-83
2023/04/27 11:45:11;;;;;;;0.13;0.13;;;12.10;91.60;;;;;;6291301;22;20015;-84
2023/04/27 11:47:39;;;;;;;0.10;0.10;;;12.00;91.20;;;;;;6272504;22;20015;-84
2023/04/27 11:50:07;;;;;;;0.10;0.10;;;12.10;91.50;;;;;;6275422;22;20023;-86
2023/04/27 11:52:34;;;;;;;0.10;0.10;;;11.90;91.40;;;;;;6274394;22;20026;-86
2023/04/27 11:55:02;;;;;;;0.10;0.10;;;11.80;91.00;;;;;;6272364;22;20020;-87
2023/04/27 11:57:33;;;;;;;0.20;0.20;;;12.00;91.10;;;;;;6274093;22;20023;-87
2023/04/27 12:00:01;;;;;;;0.10;0.10;;;11.50;90.50;;;;;;6272758;22;20043;-86
2023/04/27 12:02:29;;;;;;;0.10;0.10;;;11.40;91.20;;;;;;6272232;22;20058;-84
2023/04/27 12:04:54;;;;;;;0.20;0.20;;;11.40;91.50;;;;;;6270855;22;20894;-84
2023/04/27 12:07:20;;;;;;;0.20;0.20;;;11.20;91.80;;;;;;6273562;22;20082;-86
2023/04/27 12:09:46;;;;;;;0.15;0.15;;;11.10;92.40;;;;;;6271289;22;20004;-85
2023/04/27 12:12:21;;;;;;;0.10;0.10;;;11.00;92.80;;;;;;6271559;22;20107;-82
2023/04/27 12:14:47;;;;;;;0.10;0.10;;;11.00;93.20;;;;;;6270101;22;20049;-81
2023/04/27 12:17:13;;;;;;;0.20;0.20;;;10.90;93.60;;;;;;6273452;22;20086;-83
2023/04/27 12:19:38;;;;;;;0.10;0.10;;;10.90;94.10;;;;;;6272601;22;20039;-83
2023/04/27 12:22:04;;;;;;;0.20;0.20;;;10.90;94.30;;;;;;6271641;22;20028;-87
2023/04/27 12:24:31;;;;;;;0.15;0.15;;;10.90;94.60;;;;;;6272052;22;20020;-87
2023/04/27 12:27:00;;;;;;;0.20;0.20;;;10.90;94.70;;;;;;6272885;22;20015;-83
2023/04/27 12:29:25;;;;;;;0.20;0.20;;;10.90;95.20;;;;;;6269807;22;20015;-86
2023/04/27 12:31:52;;;;;;;0.20;0.20;;;10.90;95.40;;;;;;6274334;22;20658;-85
2023/04/27 12:34:17;;;;;;;0.10;0.10;;;11.10;95.60;;;;;;6274152;22;20090;-83
2023/04/27 12:36:43;;;;;;;0.20;0.20;;;11.20;95.90;;;;;;6272657;22;20066;-84
2023/04/27 12:39:17;;;;;;;0.13;0.13;;;11.40;96.20;;;;;;6273724;22;20027;-85
2023/04/27 12:41:44;;;;;;;0.10;0.10;;;11.50;96.80;;;;;;6275457;22;20016;-83
2023/04/27 12:44:10;;;;;;;0.10;0.10;;;11.80;96.60;;;;;;6271547;22;20317;-83
2023/04/27 12:46:36;;;;;;;0.20;0.20;;;12.00;96.30;;;;;;6273767;22;20016;-83
2023/04/27 12:49:02;;;;;;;0.10;0.10;;;12.20;96.50;;;;;;6273138;22;20443;-83
2023/04/27 12:51:28;;;;;;;0.15;0.15;;;12.40;96.50;;;;;;6275576;22;20016;-83
2023/04/27 12:53:54;;;;;;;0.20;0.20;;;12.70;96.60;;;;;;6273661;22;20011;-85
2023/04/27 12:56:22;;;;;;;0.17;0.17;;;13.00;96.70;;;;;;6275938;22;20019;-84
2023/04/27 12:58:48;;;;;;;0.20;0.20;;;13.30;96.20;;;;;;6273004;22;20039;-84
2023/04/27 13:01:14;;;;;;;0.20;0.20;;;13.50;96.10;;;;;;6274265;22;20404;-83
2023/04/27 13:03:40;;;;;;;0.20;0.20;;;13.70;96.00;;;;;;6273151;22;20019;-85
2023/04/27 13:06:16;;;;;;;0.10;0.10;;;13.90;95.50;;;;;;6273140;22;20012;-82
2023/04/27 13:08:41;;;;;;;0.20;0.20;;;14.10;95.40;;;;;;6274881;22;20015;-86
2023/04/27 13:11:07;;;;;;;0.20;0.20;;;14.20;94.50;;;;;;6275564;22;20012;-85
2023/04/27 13:13:33;;;;;;;0.20;0.20;;;14.30;94.50;;;;;;6274923;22;20149;-85
2023/04/27 13:16:03;;;;;;;0.17;0.15;;;14.40;95.00;;;;;;6272545;22;20031;-84
2023/04/27 13:18:29;;;;;;;0.13;0.13;;;14.40;94.50;;;;;;6276699;22;20012;-85
2023/04/27 13:20:56;;;;;;;0.20;0.20;;;14.40;93.90;;;;;;6275049;22;20015;-84
2023/04/27 13:23:22;;;;;;;0.10;0.10;;;14.40;94.00;;;;;;6291850;22;20019;-85
2023/04/27 13:25:48;;;;;;;0.10;0.10;;;14.50;93.80;;;;;;6298880;22;20015;-84
2023/04/27 13:28:14;;;;;;;0.17;0.17;;;14.50;93.40;;;;;;6284604;22;20018;-85
2023/04/27 13:30:40;;;;;;;0.20;0.20;;;14.50;93.60;;;;;;6271716;22;20153;-84
2023/04/27 13:33:11;;;;;;;0.20;0.20;;;14.40;93.50;;;;;;6272122;22;20047;-83
2023/04/27 13:35:37;;;;;;;0.10;0.10;;;14.30;93.40;;;;;;6272812;22;20047;-83
2023/04/27 13:38:02;;;;;;;0.10;0.10;;;14.10;93.30;;;;;;6274777;22;20034;-84
2023/04/27 13:40:28;;;;;;;0.20;0.20;;;14.00;93.00;;;;;;6274027;22;20086;-83
2023/04/27 13:42:54;;;;;;;0.10;0.10;;;13.80;93.20;;;;;;6275039;22;20016;-84
2023/04/27 13:45:20;;;;;;;0.20;0.20;;;13.60;93.40;;;;;;6270421;22;20020;-84
2023/04/27 13:47:45;;;;;;;0.20;0.20;;;13.60;93.60;;;;;;6273418;22;20012;-83
2023/04/27 13:50:11;;;;;;;0.17;0.17;;;13.50;93.60;;;;;;6271384;22;20190;-84
2023/04/27 13:52:38;;;;;;;0.20;0.20;;;13.40;93.30;;;;;;6274276;22;20074;-84
2023/04/27 13:55:06;;;;;;;0.15;0.15;;;13.30;93.30;;;;;;6273006;22;20014;-84
2023/04/27 13:57:32;;;;;;;0.20;0.20;;;13.20;93.40;;;;;;6274556;22;20011;-85
2023/04/27 13:59:59;;;;;;;0.20;0.20;;;13.40;93.50;;;;;;6270532;22;20043;-84
2023/04/27 14:02:25;;;;;;;0.10;0.10;;;13.30;93.60;;;;;;6274765;22;20336;-84
2023/04/27 14:04:51;;;;;;;0.10;0.10;;;13.10;93.70;;;;;;6274909;22;20046;-84
2023/04/27 14:07:18;;;;;;;0.13;0.13;;;13.10;93.80;;;;;;6273948;22;20465;-85
2023/04/27 14:09:44;;;;;;;0.20;0.20;;;13.10;93.60;;;;;;6272841;22;20012;-83
2023/04/27 14:12:10;;;;;;;0.20;0.20;;;13.10;93.50;;;;;;6274819;22;20019;-85
2023/04/27 14:14:35;;;;;;;0.10;0.10;;;13.10;93.50;;;;;;6273517;22;20031;-84
2023/04/27 14:17:01;;;;;;;0.10;0.10;;;13.20;93.50;;;;;;6274820;22;20019;-84
2023/04/27 14:19:27;;;;;;;0.20;0.20;;;13.30;93.40;;;;;;6273394;22;20011;-85
2023/04/27 14:21:54;;;;;;;0.10;0.10;;;13.30;93.60;;;;;;6272321;22;20011;-85
2023/04/27 14:24:21;;;;;;;0.13;0.13;;;13.40;93.70;;;;;;6275307;22;20026;-84
2023/04/27 14:26:48;;;;;;;0.10;0.10;;;13.60;93.80;;;;;;6273364;22;20332;-84
2023/04/27 14:29:14;;;;;;;0.10;0.10;;;13.80;93.90;;;;;;6271521;22;20014;-85
2023/04/27 14:31:42;;;;;;;0.10;0.10;;;13.90;93.70;;;;;;6275627;22;20377;-84
2023/04/27 14:34:08;;;;;;;0.10;0.10;;;14.00;93.50;;;;;;6273383;22;20070;-84
2023/04/27 14:36:34;;;;;;;0.15;0.15;;;14.10;93.50;;;;;;6274594;22;20046;-84
2023/04/27 14:39:00;;;;;;;0.10;0.10;;;14.20;93.40;;;;;;6274924;22;20011;-84
2023/04/27 14:41:26;;;;;;;0.15;0.15;;;14.30;93.30;;;;;;6273326;22;20016;-85